Terminal Aerodrome Forecast
Issued by NWS

Home | Current Version | Previous Version | Text Only | Print | Product List | Glossary On
Versions: 1 2 3 4 5 6 7 8 9 10 11 12 13 14 15 16 17 18 19 20 21 22 23 24 25 26 27 28 29 30 31 32 33 34 35 36 37 38 39 40
000
FTAK31 PANC 262002 AAA
TAFADU
TAF AMD
PADU 262002Z 2620/2718 16011KT P6SM VCSH SCT025 BKN040
      TEMPO 2620/2624 BKN025
     FM270000 16015G22KT P6SM VCSH BKN025 OVC035
     FM270600 16018G27KT 5SM -RA BR OVC020
     FM271200 20013G20KT P6SM -SHRA SCT025 BKN035=

USA.gov is the U.S. government's official web portal to all federal, state and local government web resources and services.